Time;durP1;ratioP1;P1;durP2;ratioP2;P2;SDS_P1;SDS_P2;PMS_P1;PMS_P2;Temp;Humidity;BMP_temperature;BMP_pressure;BME280_temperature;BME280_humidity;BME280_pressure;Samples;Min_cycle;Max_cycle;Signal;HPM_P1;HPM_P2
2023/09/11 00:02:16;;;;;;;8.48;2.67;;;;;;;18.17;63.36;99907.88;10506701;28;20048;-66
2023/09/11 00:07:18;;;;;;;5.65;2.35;;;;;;;18.10;63.28;99898.81;10474366;28;20040;-66
2023/09/11 00:12:20;;;;;;;6.20;2.20;;;;;;;17.94;63.55;99885.31;10495506;28;20152;-66
2023/09/11 00:17:22;;;;;;;10.15;3.53;;;;;;;17.91;63.75;99888.25;10515101;28;20044;-67
2023/09/11 00:22:24;;;;;;;10.85;2.85;;;;;;;17.81;63.72;99886.41;10514655;28;20768;-67
2023/09/11 00:27:26;;;;;;;5.00;2.70;;;;;;;17.76;64.11;99888.66;10515632;28;20604;-66
2023/09/11 00:32:28;;;;;;;11.13;3.00;;;;;;;17.75;63.88;99880.88;10512340;28;20174;-67
2023/09/11 00:37:31;;;;;;;6.80;2.90;;;;;;;17.77;63.75;99879.72;10493867;28;20071;-66
2023/09/11 00:42:32;;;;;;;9.45;2.72;;;;;;;17.73;64.10;99878.34;10510657;28;20419;-67
2023/09/11 00:47:35;;;;;;;7.05;2.70;;;;;;;17.74;63.93;99874.72;10509482;28;21386;-67
2023/09/11 00:52:37;;;;;;;5.60;2.20;;;;;;;17.69;64.17;99870.81;10513803;28;20411;-67
2023/09/11 00:57:42;;;;;;;8.75;3.10;;;;;;;17.65;63.98;99866.78;10487673;28;20495;-66
2023/09/11 01:02:44;;;;;;;6.28;2.67;;;;;;;17.70;63.75;99873.34;10512696;28;20048;-66
2023/09/11 01:07:46;;;;;;;7.72;3.05;;;;;;;17.61;64.03;99868.03;10495086;28;20052;-66
2023/09/11 01:12:48;;;;;;;5.63;2.30;;;;;;;17.51;63.88;99857.44;10529391;27;20065;-66
2023/09/11 01:18:05;;;;;;;4.07;2.58;;;;;;;17.38;64.55;99862.16;10512239;28;20051;-67
2023/09/11 01:23:31;;;;;;;9.18;3.00;;;;;;;17.42;64.40;99862.72;10511533;28;20036;-67
2023/09/11 01:28:47;;;;;;;6.22;2.55;;;;;;;17.44;63.85;99868.72;10491981;28;20052;-66
2023/09/11 01:33:53;;;;;;;10.57;2.60;;;;;;;17.40;64.27;99864.66;10509392;28;20395;-67
2023/09/11 01:38:56;;;;;;;4.88;2.63;;;;;;;17.30;64.15;99864.59;10509580;28;20181;-67
2023/09/11 01:44:04;;;;;;;6.97;2.60;;;;;;;17.25;64.49;99866.81;10491597;28;20150;-67
2023/09/11 01:49:08;;;;;;;8.52;3.22;;;;;;;17.18;64.55;99862.22;10510631;28;20504;-66
2023/09/11 01:54:11;;;;;;;5.60;2.97;;;;;;;17.13;64.39;99865.25;10509947;28;20218;-66
2023/09/11 01:59:14;;;;;;;5.53;2.40;;;;;;;17.00;64.60;99856.72;10509862;28;20048;-66
2023/09/11 02:04:16;;;;;;;10.48;3.03;;;;;;;16.92;64.70;99869.78;10514409;28;20046;-67
2023/09/11 02:09:18;;;;;;;5.15;2.65;;;;;;;16.84;64.72;99872.25;10497511;28;20044;-66
2023/09/11 02:14:20;;;;;;;4.90;2.35;;;;;;;16.85;64.46;99863.38;10495936;28;20062;-67
2023/09/11 02:19:22;;;;;;;5.57;2.60;;;;;;;16.50;64.84;99862.91;10519396;28;20396;-67
2023/09/11 02:24:24;;;;;;;10.00;2.70;;;;;;;16.40;65.49;99867.25;10495551;28;20333;-67
2023/09/11 02:29:26;;;;;;;5.88;2.47;;;;;;;16.60;65.32;99862.00;10519374;28;20060;-66
2023/09/11 02:34:28;;;;;;;5.53;2.50;;;;;;;16.68;64.82;99861.31;10514438;28;20471;-66
2023/09/11 02:39:30;;;;;;;8.15;3.10;;;;;;;16.74;64.76;99868.72;10519121;28;20079;-68
2023/09/11 02:44:32;;;;;;;4.88;2.75;;;;;;;16.76;64.75;99859.72;10513304;28;20046;-67
2023/09/11 02:49:34;;;;;;;5.00;2.55;;;;;;;16.71;64.83;99858.44;10513160;28;20047;-67
2023/09/11 02:54:36;;;;;;;5.43;2.70;;;;;;;16.71;64.83;99853.16;10532501;28;20105;-66
2023/09/11 02:59:43;;;;;;;5.72;2.63;;;;;;;16.70;64.65;99854.94;10512975;28;20032;-67
2023/09/11 03:04:45;;;;;;;7.05;3.17;;;;;;;16.57;65.00;99851.69;10510230;28;20669;-67
2023/09/11 03:09:48;;;;;;;7.75;2.42;;;;;;;16.42;65.25;99846.84;10484465;28;20126;-66
2023/09/11 03:14:52;;;;;;;5.63;2.88;;;;;;;16.06;65.21;99840.25;10490174;28;20365;-67
2023/09/11 03:19:55;;;;;;;5.40;2.47;;;;;;;15.93;65.22;99850.97;10474765;28;20076;-66
2023/09/11 03:24:57;;;;;;;11.45;2.55;;;;;;;15.91;65.79;99844.16;10507858;28;20048;-67
2023/09/11 03:29:59;;;;;;;6.60;2.80;;;;;;;16.11;65.56;99838.03;10488740;28;20089;-67
2023/09/11 03:35:02;;;;;;;6.57;2.67;;;;;;;16.17;65.31;99834.88;10488587;28;20058;-66
2023/09/11 03:40:08;;;;;;;8.40;3.10;;;;;;;16.12;65.27;99832.63;10507933;28;20424;-66
2023/09/11 03:45:11;;;;;;;4.68;2.55;;;;;;;16.14;65.25;99833.34;10479649;28;20080;-66
2023/09/11 03:50:13;;;;;;;5.50;2.20;;;;;;;16.20;65.34;99824.91;10532981;27;20602;-66
2023/09/11 03:55:15;;;;;;;8.77;3.35;;;;;;;16.09;65.15;99827.63;10498438;28;20040;-66
2023/09/11 04:00:17;;;;;;;6.78;2.60;;;;;;;16.03;65.33;99822.88;10516169;28;20032;-67
2023/09/11 04:05:19;;;;;;;9.77;2.95;;;;;;;15.93;65.66;99816.69;10486768;28;20044;-67
2023/09/11 04:10:22;;;;;;;6.40;2.53;;;;;;;15.82;65.86;99827.28;10481036;28;20227;-66
2023/09/11 04:15:24;;;;;;;5.45;3.00;;;;;;;15.79;65.77;99819.66;10517061;28;20134;-67
2023/09/11 04:20:29;;;;;;;4.15;2.40;;;;;;;15.92;65.48;99822.91;10485171;28;20047;-66
2023/09/11 04:25:31;;;;;;;5.50;2.83;;;;;;;15.88;65.57;99824.13;10517317;28;20044;-66
2023/09/11 04:30:33;;;;;;;7.28;2.83;;;;;;;15.74;65.83;99827.09;10497996;28;20140;-66
2023/09/11 04:35:35;;;;;;;4.25;2.45;;;;;;;15.77;65.48;99821.56;10510536;28;20408;-66
2023/09/11 04:40:38;;;;;;;9.15;2.88;;;;;;;15.77;65.82;99820.72;10512370;28;20047;-67
2023/09/11 04:45:41;;;;;;;6.78;3.08;;;;;;;15.80;65.75;99829.22;10514696;28;20056;-66
2023/09/11 04:50:43;;;;;;;8.10;2.90;;;;;;;15.94;65.46;99822.78;10513128;28;20420;-67
2023/09/11 04:55:47;;;;;;;6.63;3.08;;;;;;;16.10;65.53;99824.00;10487946;28;20740;-66
2023/09/11 05:00:52;;;;;;;6.97;2.85;;;;;;;16.14;65.69;99829.88;10491096;28;20047;-67
2023/09/11 05:05:54;;;;;;;33.95;3.58;;;;;;;16.18;65.21;99837.38;10506975;28;20519;-67
2023/09/11 05:10:56;;;;;;;6.93;2.88;;;;;;;16.20;65.31;99839.94;10469921;28;20055;-67
2023/09/11 05:15:58;;;;;;;7.30;2.50;;;;;;;16.21;65.21;99831.03;10506270;28;20048;-66
2023/09/11 05:21:02;;;;;;;7.03;3.30;;;;;;;16.21;65.02;99826.59;10491852;28;20208;-66
2023/09/11 05:26:07;;;;;;;7.05;3.03;;;;;;;16.31;65.27;99831.06;10487331;28;20134;-67
2023/09/11 05:31:10;;;;;;;8.90;3.70;;;;;;;16.44;64.72;99837.88;10489204;28;20109;-67
2023/09/11 05:36:12;;;;;;;9.15;3.67;;;;;;;16.52;64.72;99829.28;10504542;28;20059;-67
2023/09/11 05:41:14;;;;;;;29.67;3.67;;;;;;;16.66;64.60;99836.84;10508290;28;20044;-67
2023/09/11 05:46:16;;;;;;;10.90;3.70;;;;;;;16.79;64.08;99830.38;10488966;28;20066;-66
2023/09/11 05:51:18;;;;;;;27.00;3.33;;;;;;;16.95;63.85;99832.53;10491283;28;20200;-67
2023/09/11 05:56:20;;;;;;;12.57;4.65;;;;;;;17.05;63.65;99838.69;10509405;28;20036;-67
2023/09/11 06:01:22;;;;;;;6.75;3.05;;;;;;;17.07;63.52;99842.03;10486348;28;20048;-66
2023/09/11 06:06:24;;;;;;;7.22;2.80;;;;;;;17.23;63.40;99842.34;10509598;28;20414;-66
2023/09/11 06:11:26;;;;;;;6.72;2.90;;;;;;;17.34;63.40;99844.06;10509850;28;20433;-66
2023/09/11 06:16:29;;;;;;;6.18;2.75;;;;;;;17.57;63.08;99838.38;10510154;28;20488;-67
2023/09/11 06:21:31;;;;;;;4.72;2.90;;;;;;;17.65;62.76;99843.81;10509685;28;20649;-67
2023/09/11 06:26:33;;;;;;;7.20;3.22;;;;;;;17.73;62.89;99841.31;10494586;28;20101;-66
2023/09/11 06:31:35;;;;;;;6.00;3.13;;;;;;;18.12;62.36;99842.13;10511277;28;20086;-66
2023/09/11 06:36:37;;;;;;;10.18;3.47;;;;;;;18.47;61.64;99844.16;10508366;28;20145;-67
2023/09/11 06:41:40;;;;;;;6.72;3.25;;;;;;;18.63;61.46;99842.59;10507601;28;20044;-66
2023/09/11 06:46:42;;;;;;;13.95;3.75;;;;;;;18.72;60.93;99840.88;10490141;28;20564;-66
2023/09/11 06:51:44;;;;;;;9.30;3.67;;;;;;;18.54;61.37;99839.97;10510357;28;20066;-66
2023/09/11 06:56:46;;;;;;;6.82;3.28;;;;;;;18.52;61.45;99840.09;10505342;28;20040;-67
2023/09/11 07:01:48;;;;;;;5.68;3.10;;;;;;;18.60;61.56;99836.75;10510562;28;20442;-66
2023/09/11 07:06:50;;;;;;;7.10;3.13;;;;;;;18.65;61.67;99832.69;10509445;28;20116;-66
2023/09/11 07:11:56;;;;;;;8.30;3.33;;;;;;;18.71;61.81;99828.59;10508542;28;20044;-66
2023/09/11 07:17:03;;;;;;;9.98;3.17;;;;;;;18.71;61.81;99835.75;10522656;28;20046;-67
2023/09/11 07:22:05;;;;;;;6.50;3.38;;;;;;;18.78;61.70;99835.00;10510175;28;20040;-66
2023/09/11 07:27:07;;;;;;;8.63;3.60;;;;;;;19.01;61.50;99833.63;10506319;28;20196;-66
2023/09/11 07:32:10;;;;;;;12.05;3.50;;;;;;;19.07;61.77;99830.44;10508256;28;20496;-65
2023/09/11 07:37:12;;;;;;;9.88;3.90;;;;;;;19.33;61.37;99825.25;10489476;28;20076;-70
2023/09/11 07:42:14;;;;;;;7.97;3.72;;;;;;;19.83;60.54;99818.47;10508280;28;20038;-71
2023/09/11 07:47:16;;;;;;;11.45;3.38;;;;;;;20.41;59.38;99813.41;10506196;28;20504;-71
2023/09/11 07:52:18;;;;;;;7.80;4.05;;;;;;;20.83;58.38;99813.50;10483626;28;20191;-71
2023/09/11 07:57:20;;;;;;;9.10;3.15;;;;;;;21.21;57.68;99814.81;10472011;28;20123;-72
2023/09/11 08:02:22;;;;;;;10.93;3.47;;;;;;;21.82;56.59;99812.59;10507358;28;20135;-72
2023/09/11 08:07:25;;;;;;;8.55;3.53;;;;;;;22.05;55.85;99813.59;10456418;28;20119;-71
2023/09/11 08:12:27;;;;;;;7.53;3.92;;;;;;;22.33;54.87;99809.56;10507181;28;20051;-71
2023/09/11 08:17:29;;;;;;;10.38;3.28;;;;;;;22.48;54.36;99805.22;10505436;28;20131;-71
2023/09/11 08:22:31;;;;;;;8.68;3.35;;;;;;;22.84;53.63;99800.28;10490310;28;20040;-70
2023/09/11 08:27:33;;;;;;;9.05;3.15;;;;;;;23.00;52.84;99797.56;10507986;28;20211;-70
2023/09/11 08:32:37;;;;;;;9.65;3.53;;;;;;;23.14;52.78;99802.16;10528948;28;20431;-71
2023/09/11 08:37:39;;;;;;;11.30;3.67;;;;;;;23.50;52.07;99802.47;10509113;28;20051;-72
2023/09/11 08:42:41;;;;;;;7.90;3.55;;;;;;;23.49;51.68;99795.47;10502207;28;20039;-72
2023/09/11 08:47:45;;;;;;;9.88;3.80;;;;;;;23.91;51.27;99797.66;10502572;28;20507;-72
2023/09/11 08:52:49;;;;;;;7.95;3.17;;;;;;;24.09;50.57;99793.66;10505575;28;20052;-72
2023/09/11 08:57:56;;;;;;;11.10;4.45;;;;;;;24.10;50.34;99784.63;10507652;28;20048;-72
2023/09/11 09:03:00;;;;;;;12.35;3.47;;;;;;;24.15;49.76;99776.91;10512037;28;20052;-72
2023/09/11 09:08:04;;;;;;;8.75;4.05;;;;;;;24.36;49.46;99778.88;10507713;28;20048;-72
2023/09/11 09:13:07;;;;;;;9.35;3.17;;;;;;;24.62;48.88;99779.25;10509899;28;20112;-72
2023/09/11 09:18:11;;;;;;;8.63;3.10;;;;;;;24.83;48.23;99776.69;10509025;28;20515;-72
2023/09/11 09:23:16;;;;;;;11.43;3.67;;;;;;;24.96;48.22;99768.81;10515165;28;20170;-72
2023/09/11 09:28:32;;;;;;;15.93;3.38;;;;;;;25.09;46.71;99757.44;10512102;28;20146;-72
2023/09/11 09:33:37;;;;;;;14.90;3.80;;;;;;;25.01;48.20;99752.19;10497183;28;20036;-71
2023/09/11 09:38:39;;;;;;;10.75;3.30;;;;;;;25.27;47.80;99752.47;10512489;28;20478;-72
2023/09/11 09:43:51;;;;;;;13.27;3.50;;;;;;;25.48;46.86;99749.84;10513687;28;20492;-71
2023/09/11 09:48:53;;;;;;;18.63;3.25;;;;;;;25.65;47.08;99745.06;10511587;28;20161;-72
2023/09/11 09:53:55;;;;;;;8.70;3.17;;;;;;;25.79;46.60;99736.91;10504451;28;20040;-72
2023/09/11 09:59:02;;;;;;;8.65;3.10;;;;;;;25.83;46.06;99730.16;10449565;28;20036;-72
2023/09/11 10:04:15;;;;;;;8.70;2.88;;;;;;;26.12;44.34;99710.38;10509419;28;20048;-71
2023/09/11 10:09:19;;;;;;;9.63;3.22;;;;;;;26.14;43.75;99715.59;10506967;28;20136;-72
2023/09/11 10:14:23;;;;;;;10.07;3.08;;;;;;;26.20;45.08;99710.22;10505358;28;20052;-72
2023/09/11 10:19:28;;;;;;;11.60;3.08;;;;;;;26.33;43.92;99706.81;10506400;28;20074;-72
2023/09/11 10:24:31;;;;;;;7.18;3.00;;;;;;;26.63;44.20;99701.00;10507859;28;20036;-72
2023/09/11 10:30:06;;;;;;;7.57;3.20;;;;;;;26.85;43.26;99684.78;10501533;28;20521;-72
2023/09/11 10:35:10;;;;;;;10.45;2.97;;;;;;;27.05;43.91;99674.91;10502896;28;20051;-72
2023/09/11 10:40:14;;;;;;;10.40;3.15;;;;;;;27.08;43.65;99667.28;10498854;28;20788;-72
2023/09/11 10:45:30;;;;;;;7.88;2.90;;;;;;;27.10;42.66;99657.16;10478992;28;20040;-72
2023/09/11 10:50:42;;;;;;;14.85;3.03;;;;;;;26.92;42.57;99654.25;10502262;28;20303;-72
2023/09/11 10:55:44;;;;;;;8.85;3.03;;;;;;;26.84;43.15;99650.91;10496306;28;20047;-72
2023/09/11 11:00:52;;;;;;;7.55;3.05;;;;;;;26.87;42.34;99637.94;10498898;28;20081;-72
2023/09/11 11:05:56;;;;;;;6.28;3.13;;;;;;;27.19;42.65;99652.47;10516876;27;20082;-72
2023/09/11 11:11:00;;;;;;;10.93;3.25;;;;;;;27.29;42.11;99648.34;10500690;28;20047;-72
2023/09/11 11:16:15;;;;;;;7.32;2.53;;;;;;;27.52;40.81;99641.72;10503411;28;20450;-72
2023/09/11 11:21:19;;;;;;;8.93;2.72;;;;;;;27.80;41.89;99634.28;10502561;28;20495;-72
2023/09/11 11:26:25;;;;;;;9.23;2.58;;;;;;;27.95;41.07;99629.50;10500441;28;20052;-72
2023/09/11 11:31:29;;;;;;;12.55;3.28;;;;;;;28.12;41.39;99633.38;10500045;28;21423;-72
2023/09/11 11:36:32;;;;;;;8.40;2.85;;;;;;;28.32;41.26;99631.47;10476636;28;20048;-72
2023/09/11 11:41:36;;;;;;;10.65;2.78;;;;;;;28.51;40.92;99625.19;10480312;28;20510;-72
2023/09/11 11:46:39;;;;;;;10.63;3.20;;;;;;;28.58;40.84;99617.94;10502140;28;20059;-72
2023/09/11 11:51:44;;;;;;;10.95;3.13;;;;;;;28.64;40.44;99629.69;10503577;28;20056;-72
2023/09/11 11:56:46;;;;;;;14.45;3.17;;;;;;;28.61;40.57;99613.94;10490803;28;20047;-72
2023/09/11 12:01:49;;;;;;;11.02;2.65;;;;;;;28.55;40.69;99615.66;10497041;28;20055;-72
2023/09/11 12:06:56;;;;;;;9.98;2.50;;;;;;;28.81;38.89;99603.88;10495143;28;20040;-72
2023/09/11 12:11:57;;;;;;;8.90;2.70;;;;;;;28.98;39.91;99594.28;10498428;28;20032;-72
2023/09/11 12:17:00;;;;;;;7.70;2.60;;;;;;;29.19;38.76;99601.19;10508861;28;20070;-72
2023/09/11 12:22:03;;;;;;;7.07;2.65;;;;;;;29.40;38.19;99582.78;10477523;28;20036;-72
2023/09/11 12:27:07;;;;;;;7.13;2.35;;;;;;;29.48;37.89;99579.00;10510057;28;20502;-72
2023/09/11 12:32:10;;;;;;;8.10;2.30;;;;;;;29.70;38.23;99572.13;10505163;28;20055;-72
2023/09/11 12:37:13;;;;;;;7.18;3.15;;;;;;;29.77;37.38;99565.63;10471398;28;20064;-72
2023/09/11 12:42:15;;;;;;;9.40;2.80;;;;;;;29.87;37.68;99562.38;10507079;28;20673;-72
2023/09/11 12:47:17;;;;;;;8.27;3.08;;;;;;;29.90;37.30;99561.94;10475105;28;20131;-72
2023/09/11 12:52:22;;;;;;;8.13;2.65;;;;;;;29.86;37.17;99555.38;10511894;28;20048;-72
2023/09/11 12:57:25;;;;;;;9.68;3.05;;;;;;;29.92;37.46;99549.06;10489448;28;20102;-72
2023/09/11 13:02:31;;;;;;;9.20;2.90;;;;;;;30.06;36.60;99558.69;10510216;28;20044;-72
2023/09/11 13:07:37;;;;;;;5.97;2.30;;;;;;;30.15;36.49;99546.50;10508871;28;20109;-72
2023/09/11 13:12:39;;;;;;;6.78;2.42;;;;;;;30.23;36.23;99540.81;10510434;28;20492;-72
2023/09/11 13:17:42;;;;;;;10.07;2.42;;;;;;;30.22;36.25;99549.13;10505143;28;20047;-72
2023/09/11 13:22:45;;;;;;;10.13;2.55;;;;;;;30.29;36.02;99534.53;10511187;28;20040;-71
2023/09/11 13:27:47;;;;;;;6.68;2.75;;;;;;;30.34;36.04;99526.56;10505241;28;20048;-72
2023/09/11 13:32:49;;;;;;;5.97;2.63;;;;;;;30.38;36.18;99521.50;10508008;28;20118;-71
2023/09/11 13:37:51;;;;;;;5.28;2.50;;;;;;;30.49;35.42;99513.50;10483726;28;20149;-72
2023/09/11 13:42:54;;;;;;;10.55;2.50;;;;;;;30.50;34.54;99509.75;10505003;28;20044;-72
2023/09/11 13:47:56;;;;;;;9.60;2.70;;;;;;;30.60;34.35;99503.75;10500697;28;20158;-72
2023/09/11 13:52:59;;;;;;;8.57;2.38;;;;;;;30.62;34.72;99504.34;10504552;28;20135;-72
2023/09/11 13:58:02;;;;;;;8.98;2.58;;;;;;;30.71;33.99;99500.28;10497757;28;20872;-71
2023/09/11 14:03:04;;;;;;;4.97;2.22;;;;;;;30.82;34.09;99502.19;10483537;28;20136;-72
2023/09/11 14:08:06;;;;;;;8.13;2.50;;;;;;;30.61;33.43;99497.31;10498617;28;20095;-72
2023/09/11 14:13:09;;;;;;;9.27;2.58;;;;;;;30.79;33.69;99496.41;10505891;28;20048;-72
2023/09/11 14:18:12;;;;;;;6.10;2.72;;;;;;;30.88;32.89;99484.22;10488794;28;20051;-72
2023/09/11 14:23:14;;;;;;;4.90;2.28;;;;;;;31.01;32.52;99487.53;10506908;28;20067;-72
2023/09/11 14:28:16;;;;;;;7.63;3.10;;;;;;;30.99;32.39;99478.84;10504880;28;20288;-72
2023/09/11 14:33:19;;;;;;;9.95;3.22;;;;;;;31.05;32.30;99482.50;10490223;28;20036;-70
2023/09/11 14:38:21;;;;;;;10.70;3.40;;;;;;;31.23;33.16;99480.50;10505453;28;20345;-70
2023/09/11 14:43:23;;;;;;;9.90;2.17;;;;;;;31.25;33.39;99485.69;10487215;28;20040;-72
2023/09/11 14:48:25;;;;;;;8.45;2.42;;;;;;;31.34;32.50;99473.44;10504749;28;20477;-72
2023/09/11 14:53:38;;;;;;;6.13;2.63;;;;;;;31.23;32.00;99482.41;10503011;28;20059;-72
2023/09/11 14:58:40;;;;;;;6.57;2.30;;;;;;;31.27;32.87;99478.16;10499420;28;20040;-72
2023/09/11 15:03:42;;;;;;;7.28;2.30;;;;;;;31.21;32.69;99479.91;10488375;28;20110;-70
2023/09/11 15:20:12;;;;;;;6.00;2.20;;;;;;;29.70;35.15;99462.41;10546192;27;20655;-62
2023/09/11 15:25:14;;;;;;;5.80;2.53;;;;;;;30.06;34.61;99456.19;10551213;28;20487;-63
2023/09/11 15:30:16;;;;;;;6.70;2.38;;;;;;;30.43;34.44;99449.63;10540687;28;20047;-63
2023/09/11 15:35:18;;;;;;;8.10;2.15;;;;;;;30.65;33.52;99447.22;10552486;28;20043;-62
2023/09/11 15:40:21;;;;;;;11.48;2.58;;;;;;;30.71;33.87;99445.47;10544405;28;20046;-62
2023/09/11 15:45:23;;;;;;;11.13;3.30;;;;;;;30.72;33.70;99436.31;10541087;28;20821;-63
2023/09/11 15:50:25;;;;;;;9.57;2.40;;;;;;;30.68;34.17;99441.38;10536178;27;20427;-63
2023/09/11 15:55:27;;;;;;;6.95;2.60;;;;;;;30.55;34.44;99439.72;10550439;28;20050;-63
2023/09/11 16:00:29;;;;;;;7.82;2.42;;;;;;;30.49;34.90;99443.34;10543887;28;20324;-62
2023/09/11 16:05:31;;;;;;;7.68;2.60;;;;;;;30.36;35.34;99448.91;10544905;28;20050;-63
2023/09/11 16:10:34;;;;;;;7.45;2.58;;;;;;;30.19;35.53;99453.28;10538273;28;20068;-63
2023/09/11 16:15:37;;;;;;;6.13;2.45;;;;;;;29.95;36.36;99456.16;10543562;28;20051;-63
2023/09/11 16:20:40;;;;;;;8.73;2.70;;;;;;;29.64;36.74;99454.44;10527276;28;20343;-63
2023/09/11 16:25:45;;;;;;;10.48;2.95;;;;;;;29.32;37.12;99456.41;10547822;27;20048;-63
2023/09/11 16:30:48;;;;;;;8.65;2.95;;;;;;;29.14;37.61;99451.03;10513796;28;20242;-63
2023/09/11 16:35:51;;;;;;;5.68;2.47;;;;;;;28.89;37.92;99451.03;10515928;28;20128;-63
2023/09/11 16:40:53;;;;;;;10.70;2.95;;;;;;;28.75;38.63;99454.03;10516066;28;20535;-63
2023/09/11 16:45:55;;;;;;;7.25;2.65;;;;;;;28.58;39.01;99451.09;10504199;28;20400;-63
2023/09/11 16:50:57;;;;;;;10.00;3.47;;;;;;;28.32;39.57;99459.34;10517028;28;20474;-63
2023/09/11 16:55:59;;;;;;;10.32;2.90;;;;;;;28.14;39.68;99457.34;10510041;28;20048;-63
2023/09/11 17:01:07;;;;;;;5.80;2.60;;;;;;;27.97;39.73;99452.72;10516589;28;20042;-62
2023/09/11 17:06:09;;;;;;;9.00;2.50;;;;;;;27.80;40.16;99451.53;10512529;28;20048;-63
2023/09/11 17:11:11;;;;;;;11.27;2.83;;;;;;;27.67;40.46;99449.69;10513631;28;20386;-63
2023/09/11 17:16:14;;;;;;;6.95;2.70;;;;;;;27.55;40.77;99445.19;10508193;28;20048;-65
2023/09/11 17:21:16;;;;;;;8.75;2.65;;;;;;;27.37;41.00;99445.88;10517657;28;20036;-64
2023/09/11 17:26:18;;;;;;;8.10;2.47;;;;;;;27.14;41.56;99451.72;10511535;28;20076;-63
2023/09/11 17:31:20;;;;;;;5.45;2.28;;;;;;;26.89;41.77;99445.34;10510269;28;20131;-63
2023/09/11 17:36:22;;;;;;;9.30;2.95;;;;;;;26.73;42.16;99456.47;10512822;28;20055;-63
2023/09/11 17:41:24;;;;;;;7.65;2.80;;;;;;;26.52;42.21;99454.81;10513837;28;20051;-63
2023/09/11 17:46:27;;;;;;;6.00;2.55;;;;;;;26.27;42.78;99463.63;10511600;28;20621;-63
2023/09/11 17:51:29;;;;;;;8.63;2.45;;;;;;;26.08;43.33;99467.09;10523701;28;20055;-63
2023/09/11 17:56:31;;;;;;;17.92;3.03;;;;;;;25.83;43.80;99475.63;10513415;28;20050;-63
2023/09/11 18:01:33;;;;;;;9.90;2.72;;;;;;;25.75;44.12;99483.84;10515222;28;20047;-63
2023/09/11 18:06:37;;;;;;;10.13;2.58;;;;;;;25.66;44.69;99495.75;10509652;28;20044;-63
2023/09/11 18:11:39;;;;;;;7.38;3.05;;;;;;;25.52;45.87;99502.09;10511864;28;20432;-64
2023/09/11 18:16:41;;;;;;;7.63;2.95;;;;;;;25.07;47.34;99508.75;10507953;28;20055;-64
2023/09/11 18:21:44;;;;;;;9.18;2.80;;;;;;;24.86;47.67;99516.81;10510863;28;20048;-61
2023/09/11 18:26:46;;;;;;;7.93;2.83;;;;;;;24.87;47.83;99518.47;10519845;28;20507;-61
2023/09/11 18:31:49;;;;;;;5.10;2.60;;;;;;;24.77;48.46;99517.97;10515749;28;20067;-61
2023/09/11 18:36:51;;;;;;;6.15;3.05;;;;;;;24.64;49.26;99535.69;10505618;28;20337;-61
2023/09/11 18:41:57;;;;;;;6.28;2.80;;;;;;;24.52;49.77;99534.56;10511019;28;20118;-61
2023/09/11 18:46:59;;;;;;;8.50;3.78;;;;;;;24.41;50.17;99535.06;10517233;28;20056;-61
2023/09/11 18:52:02;;;;;;;5.85;3.00;;;;;;;24.31;50.18;99539.91;10508501;28;20131;-61
2023/09/11 18:57:07;;;;;;;11.70;3.10;;;;;;;23.97;50.87;99535.13;10510558;28;20225;-61
2023/09/11 19:02:09;;;;;;;6.13;3.15;;;;;;;23.79;51.46;99548.88;10505108;28;20055;-61
2023/09/11 19:07:12;;;;;;;11.27;4.15;;;;;;;23.84;51.62;99551.81;10509302;28;20051;-61
2023/09/11 19:12:14;;;;;;;6.35;3.20;;;;;;;23.73;51.95;99541.63;10515932;28;20064;-61
2023/09/11 19:17:17;;;;;;;10.07;3.38;;;;;;;23.67;52.15;99541.53;10512674;28;20055;-61
2023/09/11 19:22:19;;;;;;;9.07;3.28;;;;;;;23.53;52.67;99540.53;10509444;28;20396;-61
2023/09/11 19:27:21;;;;;;;7.07;3.45;;;;;;;23.39;53.07;99542.09;10519397;28;20459;-61
2023/09/11 19:32:24;;;;;;;6.03;3.25;;;;;;;23.35;53.37;99537.34;10501996;28;20404;-61
2023/09/11 19:37:27;;;;;;;7.47;3.58;;;;;;;23.06;53.85;99540.78;10510220;28;20063;-61
2023/09/11 19:42:29;;;;;;;6.60;3.03;;;;;;;23.04;54.01;99541.97;10505407;28;20074;-61
2023/09/11 19:47:32;;;;;;;7.15;3.10;;;;;;;23.00;54.18;99536.19;10508194;28;20518;-61
2023/09/11 19:52:34;;;;;;;12.38;3.65;;;;;;;22.85;54.74;99537.13;10507297;28;20091;-61
2023/09/11 19:57:36;;;;;;;10.18;4.07;;;;;;;22.64;54.84;99543.94;10507753;28;20415;-61
2023/09/11 20:02:38;;;;;;;6.25;3.28;;;;;;;22.65;55.14;99534.94;10508623;28;20040;-61
2023/09/11 20:07:43;;;;;;;7.15;3.13;;;;;;;22.62;55.47;99527.28;10517855;28;20266;-61
2023/09/11 20:12:46;;;;;;;7.07;3.42;;;;;;;22.47;55.71;99529.06;10517066;28;20058;-61
2023/09/11 20:17:48;;;;;;;7.22;3.20;;;;;;;22.40;55.90;99520.13;10522288;28;20051;-61
2023/09/11 20:22:52;;;;;;;8.27;3.08;;;;;;;22.18;56.14;99515.59;10511159;28;20043;-61
2023/09/11 20:27:54;;;;;;;8.77;3.20;;;;;;;21.97;56.99;99512.69;10519901;28;20051;-61
2023/09/11 20:32:57;;;;;;;7.75;3.72;;;;;;;22.00;57.03;99512.34;10516010;28;20506;-61
2023/09/11 20:37:59;;;;;;;16.33;4.85;;;;;;;22.05;57.02;99520.66;10491336;28;20063;-61
2023/09/11 20:43:02;;;;;;;6.95;3.15;;;;;;;21.92;57.01;99523.84;10515281;28;20051;-61
2023/09/11 20:48:04;;;;;;;6.78;3.17;;;;;;;21.83;57.11;99514.25;10511029;28;20036;-61
2023/09/11 20:53:06;;;;;;;6.78;3.35;;;;;;;21.70;57.52;99523.81;10511905;28;20066;-61
2023/09/11 20:58:08;;;;;;;10.55;3.47;;;;;;;21.55;58.05;99518.34;10510711;28;20186;-61
2023/09/11 21:03:11;;;;;;;12.00;3.40;;;;;;;21.45;58.04;99511.56;10510406;28;20427;-61
2023/09/11 21:08:13;;;;;;;9.00;3.33;;;;;;;21.26;58.48;99517.22;10510356;28;20054;-61
2023/09/11 21:13:15;;;;;;;8.07;3.08;;;;;;;21.31;58.56;99520.22;10509743;28;20518;-61
2023/09/11 21:18:18;;;;;;;5.28;3.20;;;;;;;21.31;58.25;99517.56;10509387;28;20055;-61
2023/09/11 21:23:20;;;;;;;13.13;4.15;;;;;;;21.24;58.77;99519.22;10508953;28;20055;-61
2023/09/11 21:28:22;;;;;;;5.28;3.28;;;;;;;21.15;58.90;99517.59;10506796;28;20302;-61
2023/09/11 21:33:26;;;;;;;10.68;3.10;;;;;;;21.03;59.22;99520.59;10509152;28;20048;-61
2023/09/11 21:38:28;;;;;;;8.32;3.50;;;;;;;21.01;59.36;99527.91;10514490;28;20044;-61
2023/09/11 21:43:30;;;;;;;6.93;3.22;;;;;;;20.92;59.48;99520.94;10511355;28;20487;-61
2023/09/11 21:48:32;;;;;;;9.32;3.42;;;;;;;20.64;59.87;99516.13;10522896;28;20340;-61
2023/09/11 21:53:38;;;;;;;8.20;3.50;;;;;;;20.47;60.42;99517.91;10490821;28;20139;-61
2023/09/11 21:58:39;;;;;;;5.90;2.83;;;;;;;20.45;60.49;99522.56;10512262;28;20059;-62
2023/09/11 22:03:42;;;;;;;7.03;3.05;;;;;;;20.45;60.23;99529.69;10525895;28;20265;-61
2023/09/11 22:08:44;;;;;;;9.82;2.92;;;;;;;20.37;60.58;99533.16;10518499;28;20055;-61
2023/09/11 22:13:46;;;;;;;10.07;4.10;;;;;;;20.31;60.59;99520.53;10515308;28;20067;-62
2023/09/11 22:18:48;;;;;;;6.57;2.58;;;;;;;20.36;60.77;99518.22;10513114;28;20049;-62
2023/09/11 22:23:50;;;;;;;6.22;2.85;;;;;;;20.14;60.68;99516.19;10512787;28;20048;-61
2023/09/11 22:28:52;;;;;;;7.85;2.75;;;;;;;19.91;61.26;99507.97;10520473;28;20045;-61
2023/09/11 22:33:54;;;;;;;11.70;3.60;;;;;;;19.85;61.48;99507.78;10509185;28;20044;-61
2023/09/11 22:38:57;;;;;;;6.82;2.88;;;;;;;19.94;61.31;99506.84;10528322;28;20556;-61
2023/09/11 22:43:59;;;;;;;8.57;3.17;;;;;;;19.88;61.63;99496.88;10513075;28;20048;-62
2023/09/11 22:49:01;;;;;;;7.72;3.47;;;;;;;19.76;61.54;99498.97;10507233;28;20123;-62
2023/09/11 22:54:03;;;;;;;7.28;3.30;;;;;;;19.63;61.98;99497.72;10512147;28;20052;-61
2023/09/11 22:59:05;;;;;;;14.40;4.15;;;;;;;19.70;62.26;99489.00;10507213;28;20134;-62
2023/09/11 23:04:07;;;;;;;5.45;3.05;;;;;;;19.79;62.20;99506.59;10507443;28;20044;-62
2023/09/11 23:09:12;;;;;;;10.30;3.63;;;;;;;19.98;62.03;99510.84;10511344;28;20455;-62
2023/09/11 23:14:14;;;;;;;7.32;3.30;;;;;;;20.00;61.83;99512.34;10507323;28;20051;-62
2023/09/11 23:19:15;;;;;;;9.02;3.90;;;;;;;19.95;61.67;99513.81;10509730;28;20400;-62
2023/09/11 23:24:18;;;;;;;7.75;3.20;;;;;;;20.07;61.43;99518.66;10506898;28;20036;-62
2023/09/11 23:29:20;;;;;;;4.78;2.83;;;;;;;20.09;61.49;99519.31;10517377;28;20198;-62
2023/09/11 23:34:22;;;;;;;8.02;3.22;;;;;;;20.15;61.21;99525.81;10506474;28;20435;-61
2023/09/11 23:39:24;;;;;;;9.75;2.83;;;;;;;20.11;61.22;99530.59;10513743;28;20178;-62